createdAt,value
2017-12-12T00:00:19.295Z,90.1
2017-12-12T00:01:23.189Z,90.1
2017-12-12T00:02:27.167Z,90.2
2017-12-12T00:03:31.547Z,90.2
2017-12-12T00:04:40.866Z,90.3
2017-12-12T00:05:46.470Z,90.2
2017-12-12T00:06:49.887Z,90
2017-12-12T00:07:56.508Z,90
2017-12-12T00:09:00.064Z,90.1
2017-12-12T00:10:03.452Z,90.1
2017-12-12T00:11:06.825Z,90.1
2017-12-12T00:12:12.465Z,90.2
2017-12-12T00:13:18.235Z,90.1
2017-12-12T00:14:21.543Z,90
2017-12-12T00:15:28.779Z,90.2
2017-12-12T00:16:32.346Z,90.2
2017-12-12T00:17:36.408Z,90.2
2017-12-12T00:18:39.597Z,90.2
2017-12-12T00:19:43.081Z,90.2
2017-12-12T00:20:59.917Z,90.2
2017-12-12T00:22:13.294Z,90.1
2017-12-12T00:23:16.910Z,90.3
2017-12-12T00:24:22.464Z,90.4
2017-12-12T00:25:25.901Z,90.5
2017-12-12T00:26:32.681Z,90.6
2017-12-12T00:27:36.005Z,90.7
2017-12-12T00:28:39.485Z,90.5
2017-12-12T00:29:42.838Z,90.6
2017-12-12T00:30:46.268Z,90.6
2017-12-12T00:31:52.758Z,90.6
2017-12-12T00:32:56.497Z,90.5
2017-12-12T00:33:59.758Z,90.6
2017-12-12T00:35:03.240Z,90.7
2017-12-12T00:36:16.645Z,90.6
2017-12-12T00:37:26.317Z,90.8
2017-12-12T00:38:59.526Z,90.9
2017-12-12T00:40:12.882Z,91
2017-12-12T00:41:26.208Z,91
2017-12-12T00:42:49.438Z,91
2017-12-12T00:44:08.357Z,90.9
2017-12-12T00:45:21.773Z,90.9
2017-12-12T00:46:28.534Z,90.9
2017-12-12T00:47:34.682Z,90.9
2017-12-12T00:48:38.036Z,91
2017-12-12T00:49:45.570Z,91
2017-12-12T00:50:48.713Z,91
2017-12-12T00:52:11.997Z,91
2017-12-12T00:53:18.658Z,91
2017-12-12T00:54:26.185Z,90.8
2017-12-12T00:55:29.589Z,90.9
2017-12-12T00:56:33.097Z,90.8
2017-12-12T00:57:36.343Z,90.8
2017-12-12T00:58:39.598Z,90.8
2017-12-12T00:59:52.989Z,90.7
2017-12-12T01:01:14.873Z,90.8
2017-12-12T01:02:28.357Z,90.8
2017-12-12T01:03:41.802Z,91.1
2017-12-12T01:04:45.262Z,90.7
2017-12-12T01:05:51.456Z,90.8
2017-12-12T01:07:04.781Z,90.8
2017-12-12T01:08:08.195Z,90.7
2017-12-12T01:09:11.607Z,90.8
2017-12-12T01:10:15.757Z,90.8
2017-12-12T01:11:19.305Z,90.9
2017-12-12T01:12:26.316Z,90.8
2017-12-12T01:13:29.744Z,90.9
2017-12-12T01:14:33.325Z,91
2017-12-12T01:15:42.045Z,91
2017-12-12T01:16:53.771Z,90.9
2017-12-12T01:18:17.221Z,90.7
2017-12-12T01:19:20.630Z,90.5
2017-12-12T01:20:24.055Z,90.3
2017-12-12T01:21:27.380Z,90.1
2017-12-12T01:22:35.931Z,90.2
2017-12-12T01:24:04.480Z,90.4
2017-12-12T01:25:09.060Z,90.4
2017-12-12T01:26:12.598Z,90.3
2017-12-12T01:27:16.137Z,90.3
2017-12-12T01:28:20.087Z,90.4
2017-12-12T01:29:24.298Z,90.5
2017-12-12T01:30:27.771Z,90.5
2017-12-12T01:31:31.184Z,90.5
2017-12-12T01:32:34.638Z,90.6
2017-12-12T01:33:38.077Z,90.6
2017-12-12T01:34:49.076Z,90.6
2017-12-12T01:35:52.466Z,90.5
2017-12-12T01:36:55.885Z,90.7
2017-12-12T01:37:59.532Z,90.7
2017-12-12T01:39:03.676Z,90.7
2017-12-12T01:40:06.928Z,90.6
2017-12-12T01:41:11.352Z,90.6
2017-12-12T01:42:14.818Z,90.6
2017-12-12T01:43:21.486Z,90.6
2017-12-12T01:44:25.700Z,90.5
2017-12-12T01:45:33.436Z,90.5
2017-12-12T01:46:36.860Z,90.8
2017-12-12T01:47:41.273Z,90.5
2017-12-12T01:48:46.947Z,90.6
2017-12-12T01:49:50.994Z,90.6
2017-12-12T01:50:54.960Z,90.7
2017-12-12T01:52:00.323Z,90.6
2017-12-12T01:53:24.557Z,90.6
2017-12-12T01:54:38.956Z,90.5
2017-12-12T01:55:42.544Z,90.6
2017-12-12T01:56:49.926Z,90.6
2017-12-12T01:57:53.971Z,90.7
2017-12-12T01:58:57.370Z,90.6
2017-12-12T02:00:00.849Z,90.2
2017-12-12T02:01:04.389Z,90
2017-12-12T02:02:17.465Z,90.1
2017-12-12T02:03:20.745Z,90
2017-12-12T02:04:24.047Z,90
2017-12-12T02:05:27.463Z,90.1
2017-12-12T02:06:31.006Z,90.2
2017-12-12T02:07:39.058Z,90.3
2017-12-12T02:08:42.504Z,90.3
2017-12-12T02:09:46.851Z,90.1
2017-12-12T02:10:50.400Z,90.1
2017-12-12T02:11:53.695Z,90
2017-12-12T02:12:57.123Z,90
2017-12-12T02:14:22.420Z,90.1
2017-12-12T02:15:36.083Z,90.1
2017-12-12T02:16:39.279Z,90.3
2017-12-12T02:17:42.745Z,90.5
2017-12-12T02:18:50.211Z,90.5
2017-12-12T02:19:53.726Z,90.7
2017-12-12T02:20:57.156Z,90.8
2017-12-12T02:22:00.619Z,90.9
2017-12-12T02:23:03.982Z,90.9
2017-12-12T02:24:10.320Z,91
2017-12-12T02:25:13.637Z,91
2017-12-12T02:26:17.321Z,91
2017-12-12T02:27:32.430Z,91.1
2017-12-12T02:28:36.291Z,91.2
2017-12-12T02:29:44.207Z,91.1
2017-12-12T02:30:50.999Z,91.2
2017-12-12T02:31:56.896Z,91.2
2017-12-12T02:33:00.468Z,91.1
2017-12-12T02:34:03.900Z,91.1
2017-12-12T02:35:09.817Z,91
2017-12-12T02:36:24.226Z,91
2017-12-12T02:37:33.984Z,90.8
2017-12-12T02:38:43.584Z,90.8
2017-12-12T02:39:47.521Z,90.8
2017-12-12T02:41:08.980Z,90.8
2017-12-12T02:42:23.001Z,90.7
2017-12-12T02:43:44.796Z,90.7
2017-12-12T02:44:48.823Z,90.7
2017-12-12T02:45:53.376Z,90.7
2017-12-12T02:46:59.894Z,90.8
2017-12-12T02:48:04.283Z,90.7
2017-12-12T02:49:10.131Z,90.8
2017-12-12T02:50:14.681Z,90.8
2017-12-12T02:51:21.327Z,90.7
2017-12-12T02:52:48.978Z,90.7
2017-12-12T02:53:54.688Z,90.8
2017-12-12T02:55:18.670Z,90.7
2017-12-12T02:56:32.672Z,90.7
2017-12-12T02:57:40.185Z,90.7
2017-12-12T02:58:54.671Z,90.7
2017-12-12T02:59:59.213Z,90.6
2017-12-12T03:01:02.575Z,90.6
2017-12-12T03:02:15.860Z,90.7
2017-12-12T03:03:32.855Z,90.7
2017-12-12T03:04:43.525Z,90.8
2017-12-12T03:05:48.990Z,90.9
2017-12-12T03:06:53.671Z,90.9
2017-12-12T03:08:02.262Z,90.9
2017-12-12T03:09:06.847Z,90.8
2017-12-12T03:10:22.357Z,90.8
2017-12-12T03:11:28.442Z,90.8
2017-12-12T03:12:31.405Z,90.8
2017-12-12T03:13:46.657Z,90.8
2017-12-12T03:14:49.996Z,90.7
2017-12-12T03:15:58.475Z,90.7
2017-12-12T03:17:02.664Z,90.8
2017-12-12T03:18:06.875Z,90.7
2017-12-12T03:19:22.721Z,90.7
2017-12-12T03:20:28.898Z,90.7
2017-12-12T03:21:44.674Z,90.7
2017-12-12T03:22:49.157Z,90.8
2017-12-12T03:23:54.475Z,90.9
2017-12-12T03:24:58.640Z,90.8
2017-12-12T03:26:03.418Z,90.9
2017-12-12T03:27:20.736Z,90.9
2017-12-12T03:28:24.094Z,90.9
2017-12-12T03:29:28.048Z,90.9
2017-12-12T03:30:31.565Z,90.9
2017-12-12T03:31:34.744Z,90.8
2017-12-12T03:32:44.154Z,90.8
2017-12-12T03:33:49.417Z,90.7
2017-12-12T03:35:03.684Z,90.7
2017-12-12T03:36:07.030Z,90.8
2017-12-12T03:37:10.996Z,90.8
2017-12-12T03:38:28.606Z,90.7
2017-12-12T03:39:33.404Z,90.6
2017-12-12T03:40:41.739Z,90.6
2017-12-12T03:41:45.748Z,90.6
2017-12-12T03:42:53.264Z,90.8
2017-12-12T03:43:57.605Z,90.7
2017-12-12T03:45:03.861Z,90.8
2017-12-12T03:46:28.085Z,90.7
2017-12-12T03:47:43.654Z,90.7
2017-12-12T03:48:59.262Z,90.6
2017-12-12T03:50:18.372Z,90.7
2017-12-12T03:51:21.807Z,90.7
2017-12-12T03:52:27.955Z,90.7
2017-12-12T03:53:43.320Z,90.6
2017-12-12T03:54:57.321Z,90.6
2017-12-12T03:56:04.587Z,90.7
2017-12-12T03:57:07.908Z,90.6
2017-12-12T03:58:11.480Z,90.6
2017-12-12T03:59:15.483Z,90.7
2017-12-12T04:00:18.881Z,90.7
2017-12-12T04:01:27.055Z,90.7
2017-12-12T04:02:30.211Z,90.7
2017-12-12T04:03:37.010Z,90.7
2017-12-12T04:04:45.554Z,90.8
2017-12-12T04:05:48.948Z,90.7
2017-12-12T04:06:52.306Z,90.7
2017-12-12T04:07:55.792Z,90.6
2017-12-12T04:08:59.800Z,90.6
2017-12-12T04:10:06.015Z,90.6
2017-12-12T04:11:09.351Z,90.6
2017-12-12T04:12:18.415Z,90.5
2017-12-12T04:13:22.263Z,90.6
2017-12-12T04:14:26.303Z,90.7
2017-12-12T04:15:29.645Z,90.7
2017-12-12T04:16:34.735Z,90.7
2017-12-12T04:17:39.574Z,90.6
2017-12-12T04:18:45.343Z,90.6
2017-12-12T04:19:50.046Z,90.6
2017-12-12T04:20:55.711Z,90.7
2017-12-12T04:22:00.152Z,90.8
2017-12-12T04:23:08.444Z,90.8
2017-12-12T04:24:13.948Z,90.8
2017-12-12T04:25:20.144Z,90.7
2017-12-12T04:26:24.457Z,90.7
2017-12-12T04:27:30.117Z,90.6
2017-12-12T04:28:36.856Z,90.7
2017-12-12T04:29:42.139Z,90.7
2017-12-12T04:30:46.132Z,90.6
2017-12-12T04:31:49.582Z,90.6
2017-12-12T04:32:52.953Z,90.7
2017-12-12T04:33:59.823Z,90.7
2017-12-12T04:35:03.199Z,90.6
2017-12-12T04:36:06.610Z,90.6
2017-12-12T04:37:10.113Z,90.6
2017-12-12T04:38:13.691Z,90.6
2017-12-12T04:39:17.087Z,90.5
2017-12-12T04:40:20.552Z,90.5
2017-12-12T04:41:24.022Z,90.6
2017-12-12T04:42:27.722Z,90.7
2017-12-12T04:43:31.243Z,90.7
2017-12-12T04:44:38.016Z,90.8
2017-12-12T04:45:42.513Z,90.8
2017-12-12T04:46:47.258Z,90.6
2017-12-12T04:47:51.405Z,90.6
2017-12-12T04:48:56.506Z,90.6
2017-12-12T04:50:01.350Z,90.6
2017-12-12T04:51:07.701Z,90.6
2017-12-12T04:52:13.343Z,90.5
2017-12-12T04:53:18.810Z,90.4
2017-12-12T04:54:23.403Z,90.4
2017-12-12T04:55:33.924Z,90.5
2017-12-12T04:56:38.972Z,90.5
2017-12-12T04:57:44.674Z,90.6
2017-12-12T04:58:49.729Z,90.7
2017-12-12T04:59:57.452Z,90.7
2017-12-12T05:01:04.263Z,90.7
2017-12-12T05:02:09.775Z,90.7
2017-12-12T05:03:17.342Z,90.7
2017-12-12T05:04:23.266Z,90.6
2017-12-12T05:05:30.525Z,90.4
2017-12-12T05:06:42.700Z,90.5
2017-12-12T05:07:48.216Z,90.6
2017-12-12T05:08:56.203Z,90.5
2017-12-12T05:10:03.188Z,90.5
2017-12-12T05:11:10.074Z,90.5
2017-12-12T05:12:18.026Z,90.5
2017-12-12T05:13:25.404Z,90.5
2017-12-12T05:14:33.526Z,90.3
2017-12-12T05:15:41.611Z,90.4
2017-12-12T05:16:49.768Z,90.5
2017-12-12T05:18:00.425Z,90.5
2017-12-12T05:19:05.958Z,90.6
2017-12-12T05:20:15.677Z,90.7
2017-12-12T05:21:25.556Z,90.6
2017-12-12T05:22:37.217Z,90.6
2017-12-12T05:23:42.966Z,90.6
2017-12-12T05:24:52.161Z,90.6
2017-12-12T05:26:04.558Z,90.7
2017-12-12T05:27:11.362Z,90.7
2017-12-12T05:28:16.079Z,90.6
2017-12-12T05:29:34.198Z,90.6
2017-12-12T05:30:40.351Z,90.6
2017-12-12T05:31:49.041Z,90.5
2017-12-12T05:32:55.167Z,90.6
2017-12-12T05:34:00.153Z,90.7
2017-12-12T05:35:07.973Z,90.6
2017-12-12T05:36:12.599Z,90.5
2017-12-12T05:37:17.708Z,90.5
2017-12-12T05:38:25.650Z,90.6
2017-12-12T05:39:30.975Z,90.6
2017-12-12T05:40:42.041Z,90.5
2017-12-12T05:41:49.958Z,90.4
2017-12-12T05:42:57.680Z,90.3
2017-12-12T05:44:03.290Z,90.3
2017-12-12T05:45:11.435Z,90.4
2017-12-12T05:46:18.245Z,90.4
2017-12-12T05:47:22.800Z,90.5
2017-12-12T05:48:31.003Z,90.3
2017-12-12T05:49:38.761Z,90.3
2017-12-12T05:50:46.465Z,90.3
2017-12-12T05:52:01.721Z,90.2
2017-12-12T05:53:08.551Z,90.2
2017-12-12T05:54:15.953Z,90.1
2017-12-12T05:55:24.659Z,90.1
2017-12-12T05:56:28.561Z,90.1
2017-12-12T05:57:34.525Z,90.1
2017-12-12T05:58:43.420Z,90.1
2017-12-12T05:59:52.329Z,90.1
2017-12-12T06:01:03.810Z,90.1
2017-12-12T06:02:12.996Z,90.2
2017-12-12T06:03:31.012Z,90.2
2017-12-12T06:04:44.060Z,90.1
2017-12-12T06:05:53.995Z,90.1
2017-12-12T06:07:03.615Z,90.1
2017-12-12T06:08:14.279Z,90.1
2017-12-12T06:09:23.187Z,90.1
2017-12-12T06:10:32.821Z,90.1
2017-12-12T06:11:41.226Z,90.2
2017-12-12T06:12:49.058Z,90.1
2017-12-12T06:14:01.402Z,90.1
2017-12-12T06:15:18.541Z,90
2017-12-12T06:16:29.388Z,90.1
2017-12-12T06:17:37.784Z,90
2017-12-12T06:18:47.019Z,90.1
2017-12-12T06:19:59.437Z,90.1
2017-12-12T06:21:07.710Z,90
2017-12-12T06:22:19.532Z,90
2017-12-12T06:23:30.542Z,90
2017-12-12T06:24:40.468Z,90
2017-12-12T06:25:54.034Z,90
2017-12-12T06:27:03.677Z,90
2017-12-12T06:28:11.616Z,90
2017-12-12T06:29:24.243Z,90
2017-12-12T06:30:36.910Z,90
2017-12-12T06:31:45.779Z,90
2017-12-12T06:32:56.152Z,90.3
2017-12-12T06:34:05.049Z,90
2017-12-12T06:35:15.169Z,89.6
2017-12-12T06:36:24.520Z,89.3
2017-12-12T06:37:43.837Z,89.2
2017-12-12T06:39:05.225Z,89.1
2017-12-12T06:40:15.213Z,89.1
2017-12-12T06:41:25.710Z,88.6
2017-12-12T06:42:38.713Z,88.7
2017-12-12T06:43:47.274Z,88.8
2017-12-12T06:45:00.661Z,88.7
2017-12-12T06:46:13.082Z,88.7
2017-12-12T06:47:25.625Z,88.7
2017-12-12T06:48:41.781Z,88.7
2017-12-12T06:50:01.912Z,88.8
2017-12-12T06:51:19.303Z,88.9
2017-12-12T06:52:44.473Z,88.5
2017-12-12T06:53:55.601Z,88.8
2017-12-12T06:55:05.051Z,88.7
2017-12-12T06:56:10.111Z,88.7
2017-12-12T06:57:13.519Z,88.7
2017-12-12T06:58:22.424Z,88.5
2017-12-12T06:59:35.395Z,88.4
2017-12-12T07:00:42.627Z,88.5
2017-12-12T07:01:48.459Z,88.1
2017-12-12T07:03:00.072Z,88
2017-12-12T07:04:06.206Z,88.1
2017-12-12T07:05:12.091Z,88.2
2017-12-12T07:06:16.095Z,88.4
2017-12-12T07:07:19.643Z,88.2
2017-12-12T07:08:23.954Z,88.1
2017-12-12T07:09:28.445Z,88
2017-12-12T07:10:31.830Z,88
2017-12-12T07:11:38.076Z,87.9
2017-12-12T07:12:42.620Z,87.7
2017-12-12T07:13:49.561Z,87.7
2017-12-12T07:14:53.026Z,87.6
2017-12-12T07:15:57.016Z,87.2
2017-12-12T07:17:00.552Z,87.2
2017-12-12T07:18:04.669Z,87.3
2017-12-12T07:19:09.498Z,87.7
2017-12-12T07:20:13.591Z,87.5
2017-12-12T07:21:18.369Z,87.5
2017-12-12T07:22:23.218Z,87.2
2017-12-12T07:23:26.644Z,87
2017-12-12T07:24:34.481Z,87.3
2017-12-12T07:25:38.771Z,87.1
2017-12-12T07:26:42.226Z,86.9
2017-12-12T07:27:46.725Z,87
2017-12-12T07:28:50.110Z,86.9
2017-12-12T07:29:53.533Z,87
2017-12-12T07:31:00.855Z,87.3
2017-12-12T07:32:05.485Z,86.8
2017-12-12T07:33:09.542Z,86.3
2017-12-12T07:34:15.359Z,86.7
2017-12-12T07:35:23.883Z,86.5
2017-12-12T07:36:30.415Z,86.3
2017-12-12T07:37:35.475Z,86.3
2017-12-12T07:38:40.276Z,86
2017-12-12T07:39:45.076Z,86.3
2017-12-12T07:40:49.088Z,86.4
2017-12-12T07:41:58.038Z,86.4
2017-12-12T07:43:03.622Z,86.3
2017-12-12T07:44:07.048Z,86.6
2017-12-12T07:45:13.976Z,86.2
2017-12-12T07:46:27.485Z,86.6
2017-12-12T07:47:33.285Z,85.4
2017-12-12T07:48:39.862Z,85.7
2017-12-12T07:49:47.357Z,85.7
2017-12-12T07:50:55.005Z,85.8
2017-12-12T07:52:00.655Z,85.6
2017-12-12T07:53:10.767Z,85.9
2017-12-12T07:54:17.407Z,85.7
2017-12-12T07:55:21.634Z,85.7
2017-12-12T07:56:27.327Z,85.3
2017-12-12T07:57:42.006Z,85.1
2017-12-12T07:58:49.590Z,85.3
2017-12-12T07:59:56.860Z,85.2
2017-12-12T08:01:06.747Z,84.7
2017-12-12T08:02:14.089Z,84.5
2017-12-12T08:03:22.589Z,84.5
2017-12-12T08:04:31.512Z,84.4
2017-12-12T08:05:42.309Z,84.6
2017-12-12T08:06:51.319Z,84.7
2017-12-12T08:08:00.537Z,84.2
2017-12-12T08:09:13.918Z,84.6
2017-12-12T08:10:20.649Z,84.6
2017-12-12T08:11:32.224Z,84.6
2017-12-12T08:12:44.591Z,84.4
2017-12-12T08:13:57.063Z,84.2
2017-12-12T08:15:08.448Z,84.5
2017-12-12T08:16:16.666Z,84.5
2017-12-12T08:17:29.517Z,84.1
2017-12-12T08:18:42.685Z,84
2017-12-12T08:19:53.865Z,84
2017-12-12T08:21:16.513Z,84.3
2017-12-12T08:22:27.869Z,84.3
2017-12-12T08:23:40.253Z,84
2017-12-12T08:24:53.678Z,83.9
2017-12-12T08:26:06.333Z,83.9
2017-12-12T08:27:17.606Z,83.8
2017-12-12T08:28:28.714Z,84
2017-12-12T08:29:44.558Z,83.3
2017-12-12T08:30:58.860Z,83.4
2017-12-12T08:32:11.744Z,83.1
2017-12-12T08:33:34.284Z,83.3
2017-12-12T08:34:47.977Z,83.3
2017-12-12T08:36:04.364Z,83.4
2017-12-12T08:37:15.862Z,82.8
2017-12-12T08:38:28.966Z,82.8
2017-12-12T08:39:48.320Z,83.1
2017-12-12T08:41:01.406Z,83
2017-12-12T08:42:16.266Z,82.3
2017-12-12T08:43:29.994Z,83.1
2017-12-12T08:44:40.691Z,83
2017-12-12T08:46:00.582Z,83.3
2017-12-12T08:47:13.307Z,82.9
2017-12-12T08:48:20.211Z,82.6
2017-12-12T08:49:45.439Z,82.6
2017-12-12T08:50:55.192Z,83.3
2017-12-12T08:52:09.501Z,82.8
2017-12-12T08:53:17.308Z,82.6
2017-12-12T08:54:27.639Z,82.7
2017-12-12T08:55:41.536Z,82.3
2017-12-12T08:56:56.938Z,82.1
2017-12-12T08:58:18.785Z,82.7
2017-12-12T08:59:31.201Z,82.6
2017-12-12T09:00:47.236Z,82.4
2017-12-12T09:02:02.590Z,82.9
2017-12-12T09:03:22.472Z,82.9
2017-12-12T09:04:30.902Z,82.5
2017-12-12T09:05:46.776Z,82.3
2017-12-12T09:07:02.141Z,82.3
2017-12-12T09:08:17.736Z,82.3
2017-12-12T09:09:31.640Z,82.3
2017-12-12T09:10:58.508Z,82.7
2017-12-12T09:12:12.905Z,82.7
2017-12-12T09:13:29.209Z,82.4
2017-12-12T09:14:34.839Z,82.3
2017-12-12T09:15:49.735Z,82.2
2017-12-12T09:17:05.876Z,82.1
2017-12-12T09:18:23.882Z,82.6
2017-12-12T09:19:35.981Z,82.3
2017-12-12T09:20:56.251Z,82.8
2017-12-12T09:22:10.496Z,82.9
2017-12-12T09:23:37.747Z,83
2017-12-12T09:24:50.994Z,82.6
2017-12-12T09:26:09.243Z,82.7
2017-12-12T09:27:25.286Z,82.9
2017-12-12T09:28:41.472Z,82.8
2017-12-12T09:29:54.444Z,82.9
2017-12-12T09:31:09.350Z,82.7
2017-12-12T09:32:22.168Z,82.8
2017-12-12T09:33:33.877Z,82.8
2017-12-12T09:34:48.922Z,82.8
2017-12-12T09:36:15.145Z,82.3
2017-12-12T09:37:34.059Z,82.2
2017-12-12T09:38:52.984Z,82.6
2017-12-12T09:40:08.584Z,83
2017-12-12T09:41:29.071Z,82.5
2017-12-12T09:42:39.012Z,83
2017-12-12T09:43:57.290Z,83
2017-12-12T09:45:07.885Z,83
2017-12-12T09:46:16.610Z,83.3
2017-12-12T09:47:30.179Z,83.3
2017-12-12T09:48:49.668Z,83.4
2017-12-12T09:50:03.785Z,83.4
2017-12-12T09:51:17.629Z,83.2
2017-12-12T09:52:31.459Z,82.4
2017-12-12T09:53:37.831Z,82.9
2017-12-12T09:54:41.285Z,82.9
2017-12-12T09:55:45.418Z,81.7
2017-12-12T09:56:48.929Z,82
2017-12-12T09:57:53.507Z,83
2017-12-12T09:58:56.948Z,82.9
2017-12-12T10:00:04.086Z,82.7
2017-12-12T10:01:08.937Z,82.5
2017-12-12T10:02:12.403Z,82.4
2017-12-12T10:03:16.380Z,82.2
2017-12-12T10:04:19.861Z,81.3
2017-12-12T10:05:24.067Z,81.8
2017-12-12T10:06:27.633Z,81.5
2017-12-12T10:07:32.505Z,81.1
2017-12-12T10:08:37.049Z,81.3
2017-12-12T10:09:40.627Z,81.8
2017-12-12T10:10:48.123Z,81.9
2017-12-12T10:11:52.402Z,82.1
2017-12-12T10:12:56.688Z,81.8
2017-12-12T10:14:01.911Z,81.8
2017-12-12T10:15:07.304Z,81.9
2017-12-12T10:16:13.167Z,81.7
2017-12-12T10:17:17.166Z,81.3
2017-12-12T10:18:22.074Z,81.3
2017-12-12T10:19:26.320Z,81.3
2017-12-12T10:20:30.153Z,81.1
2017-12-12T10:21:41.820Z,79.8
2017-12-12T10:22:46.902Z,80.4
2017-12-12T10:23:52.491Z,81.1
2017-12-12T10:24:58.393Z,81.3
2017-12-12T10:26:04.298Z,81
2017-12-12T10:27:08.744Z,80.6
2017-12-12T10:28:14.813Z,80.1
2017-12-12T10:29:19.640Z,80.3
2017-12-12T10:30:24.010Z,80.4
2017-12-12T10:31:29.670Z,80.7
2017-12-12T10:32:44.663Z,80.7
2017-12-12T10:33:51.629Z,80.6
2017-12-12T10:34:59.309Z,80.8
2017-12-12T10:36:06.868Z,80.6
2017-12-12T10:37:14.474Z,81
2017-12-12T10:38:21.735Z,81.1
2017-12-12T10:39:29.708Z,80.8
2017-12-12T10:40:35.354Z,80.7
2017-12-12T10:41:44.085Z,81
2017-12-12T10:42:53.010Z,80.9
2017-12-12T10:44:12.536Z,81.7
2017-12-12T10:45:21.743Z,81.6
2017-12-12T10:46:31.090Z,81.2
2017-12-12T10:47:43.978Z,80.9
2017-12-12T10:48:53.876Z,81
2017-12-12T10:50:07.554Z,81
2017-12-12T10:51:17.419Z,79.9
2017-12-12T10:52:27.677Z,80
2017-12-12T10:53:40.880Z,80.7
2017-12-12T10:54:54.608Z,80.7
2017-12-12T10:56:18.361Z,80.6
2017-12-12T10:57:33.004Z,81.1
2017-12-12T10:58:55.203Z,81.1
2017-12-12T11:00:06.746Z,80.5
2017-12-12T11:01:20.577Z,80.7
2017-12-12T11:02:32.968Z,80.7
2017-12-12T11:03:48.635Z,80.8
2017-12-12T11:05:00.714Z,80.7
2017-12-12T11:06:16.416Z,80.7
2017-12-12T11:07:31.695Z,81
2017-12-12T11:08:53.107Z,80.5
2017-12-12T11:10:15.601Z,80.4
2017-12-12T11:11:29.083Z,80.6
2017-12-12T11:12:49.194Z,79.8
2017-12-12T11:14:01.639Z,80.6
2017-12-12T11:15:17.767Z,79.9
2017-12-12T11:16:31.739Z,80.4
2017-12-12T11:17:41.575Z,80.3
2017-12-12T11:19:15.469Z,80.5
2017-12-12T11:20:35.307Z,79.7
2017-12-12T11:22:04.915Z,79.8
2017-12-12T11:23:20.640Z,79.5
2017-12-12T11:24:32.020Z,79.8
2017-12-12T11:25:52.126Z,80.1
2017-12-12T11:27:10.498Z,79.2
2017-12-12T11:28:33.827Z,79.6
2017-12-12T11:29:47.722Z,79.8
2017-12-12T11:30:54.754Z,80
2017-12-12T11:32:19.848Z,80.2
2017-12-12T11:33:35.062Z,80.4
2017-12-12T11:35:14.448Z,80.4
2017-12-12T11:36:39.888Z,80.4
2017-12-12T11:37:53.655Z,80.1
2017-12-12T11:39:11.233Z,80.1
2017-12-12T11:40:32.645Z,79.9
2017-12-12T11:41:49.570Z,80.1
2017-12-12T11:43:07.373Z,80.1
2017-12-12T11:44:19.791Z,80
2017-12-12T11:45:33.244Z,77.8
2017-12-12T11:46:47.530Z,79
2017-12-12T11:48:17.255Z,79.7
2017-12-12T11:49:33.165Z,80.4
2017-12-12T11:50:51.146Z,80.2
2017-12-12T11:52:19.866Z,80.2
2017-12-12T11:53:38.905Z,79.6
2017-12-12T11:54:50.928Z,79.6
2017-12-12T11:56:09.763Z,79.6
2017-12-12T11:57:33.546Z,79.3
2017-12-12T11:58:50.063Z,79.8
2017-12-12T12:00:04.270Z,79.9
2017-12-12T12:01:35.244Z,80.4
2017-12-12T12:02:57.595Z,80.2
2017-12-12T12:04:12.562Z,80.1
2017-12-12T12:05:28.028Z,80.3
2017-12-12T12:06:47.874Z,80.2
2017-12-12T12:08:02.206Z,80.4
2017-12-12T12:09:18.417Z,80.6
2017-12-12T12:10:34.307Z,80.7
2017-12-12T12:11:48.715Z,80.8
2017-12-12T12:13:08.708Z,80.4
2017-12-12T12:14:43.808Z,80.3
2017-12-12T12:15:57.349Z,80.4
2017-12-12T12:17:07.606Z,80.3
2017-12-12T12:18:27.873Z,80.5
2017-12-12T12:19:41.808Z,80.7
2017-12-12T12:20:53.568Z,80.7
2017-12-12T12:22:05.061Z,80.8
2017-12-12T12:23:16.963Z,80.8
2017-12-12T12:24:31.055Z,81
2017-12-12T12:25:43.264Z,81.8
2017-12-12T12:27:03.695Z,81.6
2017-12-12T12:28:20.561Z,81.2
2017-12-12T12:29:35.275Z,81
2017-12-12T12:30:49.819Z,81.4
2017-12-12T12:31:58.019Z,81.5
2017-12-12T12:33:03.579Z,81.2
2017-12-12T12:34:09.100Z,81.5
2017-12-12T12:35:22.457Z,81.5
2017-12-12T12:36:26.640Z,81.6
2017-12-12T12:37:35.047Z,82.2
2017-12-12T12:38:42.393Z,82.3
2017-12-12T12:39:45.840Z,82.1
2017-12-12T12:40:49.382Z,81.8
2017-12-12T12:41:52.850Z,81.7
2017-12-12T12:42:57.035Z,81.9
2017-12-12T12:44:01.268Z,82.1
2017-12-12T12:45:09.277Z,82
2017-12-12T12:46:13.841Z,81.7
2017-12-12T12:47:17.515Z,82
2017-12-12T12:48:22.384Z,82.1
2017-12-12T12:49:30.301Z,82
2017-12-12T12:50:35.507Z,82.1
2017-12-12T12:51:41.827Z,82.1
2017-12-12T12:52:45.267Z,82.1
2017-12-12T12:53:49.377Z,81.7
2017-12-12T12:54:53.992Z,81.9
2017-12-12T12:55:58.687Z,81.8
2017-12-12T12:57:03.853Z,82.5
2017-12-12T12:58:09.510Z,82.4
2017-12-12T12:59:14.449Z,82.5
2017-12-12T13:00:23.413Z,82.4
2017-12-12T13:01:29.394Z,82.5
2017-12-12T13:02:34.309Z,82.8
2017-12-12T13:03:41.082Z,83
2017-12-12T13:04:45.145Z,82.5
2017-12-12T13:05:50.500Z,82.5
2017-12-12T13:06:56.969Z,82.9
2017-12-12T13:08:02.927Z,82.3
2017-12-12T13:09:07.735Z,82.6
2017-12-12T13:10:14.982Z,82.5
2017-12-12T13:11:27.493Z,82.7
2017-12-12T13:12:32.753Z,82.7
2017-12-12T13:13:41.234Z,82.8
2017-12-12T13:14:50.444Z,82.7
2017-12-12T13:16:00.420Z,82.8
2017-12-12T13:17:07.974Z,82
2017-12-12T13:18:16.383Z,82.1
2017-12-12T13:19:26.338Z,82.1
2017-12-12T13:20:35.355Z,82.7
2017-12-12T13:21:42.948Z,82.7
2017-12-12T13:23:02.152Z,82.5
2017-12-12T13:24:16.645Z,82.5
2017-12-12T13:25:25.931Z,82.7
2017-12-12T13:26:33.336Z,82.6
2017-12-12T13:27:42.183Z,82.9
2017-12-12T13:28:49.111Z,83.3
2017-12-12T13:29:57.329Z,83.3
2017-12-12T13:31:07.364Z,83.3
2017-12-12T13:32:23.032Z,83.2
2017-12-12T13:33:42.328Z,83.3
2017-12-12T13:35:00.905Z,83.1
2017-12-12T13:36:08.211Z,82.9
2017-12-12T13:37:15.619Z,83
2017-12-12T13:38:24.752Z,83.2
2017-12-12T13:39:33.904Z,83.3
2017-12-12T13:40:44.384Z,83.7
2017-12-12T13:42:00.494Z,83.8
2017-12-12T13:43:11.243Z,83.7
2017-12-12T13:44:26.385Z,84
2017-12-12T13:45:51.366Z,83.9
2017-12-12T13:47:10.125Z,83.7
2017-12-12T13:48:24.280Z,83.9
2017-12-12T13:49:41.540Z,83.9
2017-12-12T13:50:55.495Z,84
2017-12-12T13:52:02.970Z,83.7
2017-12-12T13:53:19.572Z,83.3
2017-12-12T13:54:42.853Z,83.5
2017-12-12T13:55:50.003Z,83.8
2017-12-12T13:57:01.495Z,83.7
2017-12-12T13:58:14.399Z,83.8
2017-12-12T13:59:45.306Z,83.5
2017-12-12T14:00:54.929Z,83.7
2017-12-12T14:02:10.796Z,84.1
2017-12-12T14:03:25.794Z,84.4
2017-12-12T14:04:42.417Z,84.3
2017-12-12T14:05:55.832Z,83.8
2017-12-12T14:07:11.654Z,83.4
2017-12-12T14:08:22.990Z,83.7
2017-12-12T14:09:31.789Z,83.9
2017-12-12T14:10:36.865Z,83.9
2017-12-12T14:11:59.604Z,84.2
2017-12-12T14:13:11.255Z,84
2017-12-12T14:14:25.472Z,84
2017-12-12T14:15:35.708Z,83.6
2017-12-12T14:16:47.952Z,84
2017-12-12T14:17:57.270Z,83.9
2017-12-12T14:19:08.542Z,83.7
2017-12-12T14:20:26.813Z,83.7
2017-12-12T14:21:51.164Z,83.8
2017-12-12T14:23:01.761Z,84.2
2017-12-12T14:24:24.590Z,83.9
2017-12-12T14:25:36.984Z,84.1
2017-12-12T14:26:49.002Z,83.9
2017-12-12T14:28:04.835Z,83.9
2017-12-12T14:29:16.261Z,84.1
2017-12-12T14:30:29.537Z,83.5
2017-12-12T14:31:44.984Z,83.5
2017-12-12T14:33:01.549Z,83.7
2017-12-12T14:34:15.269Z,83.7
2017-12-12T14:35:31.768Z,84
2017-12-12T14:36:42.821Z,84.2
2017-12-12T14:37:48.080Z,83.9
2017-12-12T14:38:55.861Z,84.1
2017-12-12T14:40:08.011Z,84.1
2017-12-12T14:41:16.787Z,83.8
2017-12-12T14:42:24.321Z,84.1
2017-12-12T14:43:29.625Z,85
2017-12-12T14:44:37.150Z,84.2
2017-12-12T14:45:47.660Z,84
2017-12-12T14:46:55.052Z,83.9
2017-12-12T14:48:13.093Z,83.8
2017-12-12T14:49:17.223Z,84.3
2017-12-12T14:50:21.407Z,84.2
2017-12-12T14:51:25.950Z,84.2
2017-12-12T14:52:29.527Z,84.3
2017-12-12T14:53:38.472Z,84.4
2017-12-12T14:54:45.811Z,84.3
2017-12-12T14:55:49.240Z,84.4
2017-12-12T14:56:55.048Z,84.3
2017-12-12T14:58:01.049Z,84.5
2017-12-12T14:59:08.934Z,84.6
2017-12-12T15:00:13.462Z,84.5
2017-12-12T15:01:19.594Z,84
2017-12-12T15:02:24.098Z,84
2017-12-12T15:03:27.799Z,84.1
2017-12-12T15:04:31.137Z,84.2
2017-12-12T15:05:35.996Z,83.9
2017-12-12T15:06:39.636Z,83.9
2017-12-12T15:07:43.268Z,84.1
2017-12-12T15:08:49.156Z,84.3
2017-12-12T15:09:57.846Z,84.6
2017-12-12T15:11:01.723Z,84.6
2017-12-12T15:12:05.242Z,84.8
2017-12-12T15:13:08.697Z,85
2017-12-12T15:14:12.691Z,85.2
2017-12-12T15:15:18.301Z,85.1
2017-12-12T15:16:23.673Z,85.5
2017-12-12T15:17:27.740Z,85.3
2017-12-12T15:18:31.599Z,85.3
2017-12-12T15:19:36.593Z,85.9
2017-12-12T15:20:44.208Z,85.9
2017-12-12T15:21:48.200Z,86.1
2017-12-12T15:22:53.544Z,86.3
2017-12-12T15:23:59.404Z,86.3
2017-12-12T15:25:04.280Z,86.2
2017-12-12T15:26:10.278Z,85.9
2017-12-12T15:27:15.128Z,86
2017-12-12T15:28:21.963Z,86
2017-12-12T15:29:27.991Z,86.2
2017-12-12T15:30:33.323Z,86.1
2017-12-12T15:31:48.972Z,86.3